Más de esta sección

TAF-AERONAUTICA

       

                                                              

                                                         SANTO DOMINGO 27 SEPTIEMBRE  DE 2021

                                                                AEROP. INT. LAS AMERICAS JFPG-             

                                                                      

 

FTDR31 MDSD 271600Z  
TAF 

TAF MDPP 271600Z 2718/2818 09010KT 9999 SCT020 PROB30 2722/2704 7000 -TSRA FEW016CB BKN016 BECMG 2802/2804 00000KT=

TAF MDST 271600Z 2718/2818 12010KT 9999 FEW020 PROB30 2718/2800 7000 -RA SCT018 BKN070=                                                       

TAF MDPC 271600Z 2718/2818 13010KT 9999 FEW022 FM 2721/2803 8000 -RA SCT018 SCT070 BECMG 2802/2804 00000KT=

 TAF MDBH 271600Z 2718/2818 13010KT 9999 FEW020CB FEW022 SCT300 PROB30 2719/2801 8000 -TSRA FEW016CB BKN016=

TAF MDJB 271600Z 2718/2818 16010KT 9999 SCT022 PROB30 2800/2806 8000 -TSRA FEW016CB BKN016=

TAF MDSD 271600Z 2718/2818 17008KT 9999 FEW020CB SCT022 PROB30 2801/2807 6000 TSRA FEW016CB BKN018 SCT070 BECMG 2800/2802 09004KT=

TAF MDLR 271600Z 2718/2818 14010KT 9999 FEW018CB BKN020 SCT070 PROB40 2718/2800 5000 TSRA FEW016CB BKN018 BKN070 BECMG 2719/2721 16008KT=

TAF MDCY 271600Z 2718/2818 11007KT 9999 FEW025=

MDPP AEROPUERTO INTERNACIONAL LA UNION PUERTO PLATA

MDST AEROPUERTO INTERNACIONAL DE SANTIAGO

MDPC AEROPUERTO INTERNACIONAL PUNTA CANA

MDBH AEROPUERTO INTERNACIONAL DE BARAHONA

MDJB AEROPUERTO INTERNACIONAL JOAQUIN BALAGUER

MDSD AEROPUERTO INTERNACIONAL LAS AMERICAS

MDLR AEROPUERTO INTERNACIONAL LA ROMANA

MDCY AEROPUERTO INTERNACIONAL DE CATEY

 

ROBIN RODRIGUEZ

MDPP// S.ROSARIO

MDST// D.VOLQUEZ

MDPC// M.OTAÑEZ

MDBH// F.MEDINA

MDJB// D.CACERES

MDLR// A.ESPINOSA

MDCY// D.FLORENTINO